Time;durP1;ratioP1;P1;durP2;ratioP2;P2;SDS_P1;SDS_P2;PMS_P1;PMS_P2;Temp;Humidity;BMP_temperature;BMP_pressure;BME280_temperature;BME280_humidity;BME280_pressure;Samples;Min_cycle;Max_cycle;Signal;HPM_P1;HPM_P2
2023/01/23 00:00:20;;;;;;;49.58;22.52;;;;;;;8.27;97.33;100450.09;3156897;28;20052;-73
2023/01/23 00:01:52;;;;;;;47.22;22.02;;;;;;;8.29;97.62;100464.72;3157057;28;20125;-72
2023/01/23 00:03:24;;;;;;;50.85;21.83;;;;;;;8.30;97.58;100463.81;3157029;28;20067;-72
2023/01/23 00:04:55;;;;;;;56.45;22.02;;;;;;;8.31;97.60;100462.97;3157003;28;20123;-71
2023/01/23 00:06:27;;;;;;;50.00;22.48;;;;;;;8.31;97.78;100460.38;3157314;28;20109;-74
2023/01/23 00:07:58;;;;;;;50.67;23.27;;;;;;;8.33;97.85;100460.31;3157025;28;20051;-72
2023/01/23 00:09:30;;;;;;;51.28;22.85;;;;;;;8.34;97.95;100459.41;3155864;28;20048;-73
2023/01/23 00:11:05;;;;;;;56.55;24.60;;;;;;;8.34;98.10;100460.28;3157192;28;20174;-73
2023/01/23 00:12:40;;;;;;;62.78;25.17;;;;;;;8.25;98.05;100442.31;3159297;28;20072;-72
2023/01/23 00:14:12;;;;;;;60.83;26.52;;;;;;;8.33;98.60;100455.13;3155679;28;20044;-73
2023/01/23 00:15:44;;;;;;;56.95;26.02;;;;;;;8.33;98.40;100455.97;3159298;28;20048;-73
2023/01/23 00:17:16;;;;;;;67.07;27.25;;;;;;;8.34;98.72;100460.28;3159720;28;20059;-72
2023/01/23 00:18:49;;;;;;;60.47;28.30;;;;;;;8.36;98.89;100458.47;3159351;28;20566;-73
2023/01/23 00:20:21;;;;;;;63.58;25.95;;;;;;;8.34;98.75;100457.69;3159432;28;20052;-72
2023/01/23 00:21:52;;;;;;;71.88;28.27;;;;;;;8.34;98.92;100465.47;3158656;28;20056;-72
2023/01/23 00:23:23;;;;;;;66.60;27.70;;;;;;;8.35;99.11;100468.91;3159577;28;20116;-72
2023/01/23 00:24:55;;;;;;;68.65;28.35;;;;;;;8.33;99.37;100462.91;3158403;28;20048;-72
2023/01/23 00:26:31;;;;;;;72.05;29.52;;;;;;;8.33;99.52;100463.75;3159099;28;20114;-72
2023/01/23 00:28:04;;;;;;;72.22;30.63;;;;;;;8.35;99.56;100461.13;3159124;28;20512;-72
2023/01/23 00:29:36;;;;;;;65.20;31.27;;;;;;;8.35;99.30;100458.53;3158894;28;20058;-72
2023/01/23 00:31:11;;;;;;;71.55;29.25;;;;;;;8.38;99.44;100472.31;3158863;28;20044;-75
2023/01/23 00:32:43;;;;;;;65.65;29.60;;;;;;;8.39;99.40;100468.81;3159037;28;20086;-73
2023/01/23 00:34:15;;;;;;;62.60;28.58;;;;;;;8.37;99.43;100462.81;3150369;28;20684;-73
2023/01/23 00:35:46;;;;;;;70.25;29.10;;;;;;;8.40;99.78;100472.25;3154080;28;20055;-73
2023/01/23 00:37:18;;;;;;;65.63;28.42;;;;;;;8.41;99.85;100469.63;3159030;28;20572;-73
2023/01/23 00:38:49;;;;;;;76.22;29.13;;;;;;;8.40;99.63;100462.75;3158451;28;20047;-73
2023/01/23 00:40:21;;;;;;;69.28;27.50;;;;;;;8.36;100.00;100461.06;3159009;28;20525;-72
2023/01/23 00:41:53;;;;;;;72.72;27.70;;;;;;;8.40;99.72;100465.34;3158295;28;20051;-70
2023/01/23 00:43:25;;;;;;;70.55;25.20;;;;;;;8.41;99.85;100474.81;3155979;28;20110;-70
2023/01/23 00:44:57;;;;;;;66.05;27.60;;;;;;;8.42;100.00;100467.88;3149383;28;20040;-71
2023/01/23 00:46:29;;;;;;;65.45;25.63;;;;;;;8.43;99.94;100473.06;3159343;28;20063;-71
2023/01/23 00:48:01;;;;;;;76.82;28.38;;;;;;;8.45;100.00;100474.75;3158762;28;20059;-71
2023/01/23 00:49:33;;;;;;;60.80;25.13;;;;;;;8.46;100.00;100476.44;3158790;28;20047;-71
2023/01/23 00:51:05;;;;;;;62.55;27.83;;;;;;;8.44;100.00;100479.09;3152493;28;20048;-72
2023/01/23 00:52:37;;;;;;;68.30;25.48;;;;;;;8.42;100.00;100481.72;3159216;28;20052;-72
2023/01/23 00:54:09;;;;;;;65.57;25.10;;;;;;;8.43;100.00;100487.78;3158878;28;20105;-71
2023/01/23 00:55:41;;;;;;;62.38;26.48;;;;;;;8.41;100.00;100485.22;3158635;28;20047;-72
2023/01/23 00:57:14;;;;;;;69.25;27.35;;;;;;;8.42;100.00;100483.47;3158844;28;20044;-72
2023/01/23 00:58:45;;;;;;;59.30;25.60;;;;;;;8.43;100.00;100492.97;3158764;28;20550;-73
2023/01/23 01:00:18;;;;;;;67.88;26.63;;;;;;;8.42;100.00;100489.50;3159014;28;20044;-73
2023/01/23 01:01:49;;;;;;;61.20;25.88;;;;;;;8.42;100.00;100493.84;3158581;28;20059;-72
2023/01/23 01:03:23;;;;;;;57.45;25.70;;;;;;;8.42;100.00;100494.69;3158594;28;20116;-72
2023/01/23 01:04:55;;;;;;;65.47;27.23;;;;;;;8.42;100.00;100486.06;3158744;28;20048;-72
2023/01/23 01:06:28;;;;;;;67.82;28.05;;;;;;;8.45;100.00;100485.13;3159076;28;20071;-72
2023/01/23 01:07:59;;;;;;;63.63;26.90;;;;;;;8.43;100.00;100483.44;3158661;28;20135;-72
2023/01/23 01:09:31;;;;;;;64.97;27.48;;;;;;;8.46;100.00;100484.22;3158665;28;20051;-72
2023/01/23 01:11:04;;;;;;;72.03;28.63;;;;;;;8.47;100.00;100485.94;3158508;28;20165;-73
2023/01/23 01:12:37;;;;;;;57.72;25.08;;;;;;;8.48;100.00;100490.25;3158705;28;20597;-72
2023/01/23 01:14:09;;;;;;;;;;;;;;;8.43;100.00;100496.41;3159244;28;20051;-72
2023/01/23 01:15:40;;;;;;;69.22;24.02;;;;;;;8.40;100.00;100491.31;3158809;28;20341;-72
2023/01/23 01:17:12;;;;;;;56.13;23.58;;;;;;;8.43;100.00;100492.97;3158691;28;20059;-71
2023/01/23 01:18:44;;;;;;;54.13;22.17;;;;;;;8.42;100.00;100494.69;3158590;28;20535;-72
2023/01/23 01:20:16;;;;;;;54.33;23.25;;;;;;;8.43;100.00;100492.97;3158516;28;20097;-71
2023/01/23 01:21:48;;;;;;;57.17;23.23;;;;;;;8.43;100.00;100495.56;3157688;28;20487;-71
2023/01/23 01:23:20;;;;;;;51.25;22.17;;;;;;;8.45;100.00;100500.72;3158353;28;20838;-71
2023/01/23 01:24:51;;;;;;;47.08;19.17;;;;;;;8.45;100.00;100504.16;3149194;28;20059;-72
2023/01/23 01:26:25;;;;;;;56.65;21.55;;;;;;;8.45;100.00;100511.09;3158210;28;20048;-72
2023/01/23 01:27:57;;;;;;;59.05;20.95;;;;;;;8.42;100.00;100520.66;3158317;28;20071;-72
2023/01/23 01:29:29;;;;;;;54.50;20.13;;;;;;;8.43;100.00;100518.94;3158627;28;20051;-71
2023/01/23 01:31:04;;;;;;;46.50;20.60;;;;;;;8.45;100.00;100511.94;3158159;28;20436;-72
2023/01/23 01:32:37;;;;;;;54.25;21.90;;;;;;;8.45;100.00;100513.69;3158439;28;20071;-72
2023/01/23 01:34:08;;;;;;;50.00;22.52;;;;;;;8.38;100.00;100498.25;3158329;28;20051;-72
2023/01/23 01:35:40;;;;;;;60.30;23.73;;;;;;;8.48;100.00;100511.84;3158729;28;20044;-72
2023/01/23 01:37:11;;;;;;;70.75;25.52;;;;;;;8.47;100.00;100504.97;3158526;28;20052;-72
2023/01/23 01:38:43;;;;;;;59.67;24.05;;;;;;;8.49;100.00;100515.28;3158413;28;20118;-72
2023/01/23 01:40:17;;;;;;;48.80;22.83;;;;;;;8.48;100.00;100511.84;3158150;28;20044;-72
2023/01/23 01:41:49;;;;;;;52.20;21.85;;;;;;;8.48;100.00;100519.63;3158394;28;20048;-71
2023/01/23 01:43:25;;;;;;;57.67;20.88;;;;;;;8.48;100.00;100516.19;3155456;28;20117;-71
2023/01/23 01:44:58;;;;;;;47.22;18.63;;;;;;;8.45;100.00;100508.50;3148567;28;20047;-71
2023/01/23 01:46:31;;;;;;;51.80;18.95;;;;;;;8.42;100.00;100518.06;3158267;28;20052;-71
2023/01/23 01:48:03;;;;;;;63.80;21.15;;;;;;;8.43;100.00;100506.78;3158154;28;20043;-71
2023/01/23 01:49:34;;;;;;;48.08;18.63;;;;;;;8.39;100.00;100515.53;3158144;28;20433;-71
2023/01/23 01:51:26;;;;;;;55.92;18.75;;;;;;;8.45;100.00;100514.53;3151501;28;20056;-71
2023/01/23 01:52:58;;;;;;;45.72;18.70;;;;;;;8.47;100.00;100514.50;3147446;28;20044;-71
2023/01/23 01:54:35;;;;;;;56.95;17.73;;;;;;;8.46;100.00;100502.41;3158288;28;20056;-71
2023/01/23 01:56:11;;;;;;;43.22;19.00;;;;;;;8.45;100.00;100511.94;3157849;28;20410;-71
2023/01/23 01:57:47;;;;;;;48.83;18.90;;;;;;;8.44;100.00;100507.66;3157940;28;20048;-71
2023/01/23 01:59:24;;;;;;;45.70;19.10;;;;;;;8.40;100.00;100501.69;3158384;28;20056;-71
2023/01/23 02:00:55;;;;;;;40.55;17.85;;;;;;;8.42;100.00;100517.19;3157706;28;20652;-71
2023/01/23 02:02:31;;;;;;;49.42;18.67;;;;;;;8.41;100.00;100521.53;3157972;28;20449;-72
2023/01/23 02:04:03;;;;;;;48.67;19.30;;;;;;;8.41;100.00;100507.72;3155853;28;20044;-72
2023/01/23 02:05:38;;;;;;;47.88;19.58;;;;;;;8.43;100.00;100521.53;3157968;28;20568;-72
2023/01/23 02:07:15;;;;;;;43.17;19.42;;;;;;;8.43;100.00;100522.38;3158021;28;20048;-72
2023/01/23 02:08:55;;;;;;;46.42;18.83;;;;;;;8.37;100.00;100512.09;3158036;28;20040;-72
2023/01/23 02:10:27;;;;;;;53.65;20.50;;;;;;;8.43;100.00;100513.72;3145345;28;20048;-72
2023/01/23 02:11:59;;;;;;;45.65;17.55;;;;;;;8.41;100.00;100516.34;3150780;28;20049;-72
2023/01/23 02:13:34;;;;;;;44.33;18.67;;;;;;;8.41;100.00;100510.31;3156754;28;20063;-72
2023/01/23 02:15:09;;;;;;;53.97;19.23;;;;;;;8.42;100.00;100506.81;3157889;28;20445;-72
2023/01/23 02:16:45;;;;;;;46.72;18.65;;;;;;;8.43;100.00;100509.41;3158068;28;20274;-72
2023/01/23 02:18:16;;;;;;;48.42;19.35;;;;;;;8.43;100.00;100504.19;3157626;28;20073;-73
2023/01/23 02:19:58;;;;;;;60.40;20.15;;;;;;;8.41;100.00;100505.97;3157552;28;20488;-71
2023/01/23 02:21:30;;;;;;;48.80;19.60;;;;;;;8.40;100.00;100504.28;3158163;28;20048;-71
2023/01/23 02:23:09;;;;;;;42.30;18.77;;;;;;;8.42;100.00;100510.25;3157485;28;20426;-72
2023/01/23 02:24:46;;;;;;;54.38;19.25;;;;;;;8.43;100.00;100513.72;3157821;28;20130;-72
2023/01/23 02:26:23;;;;;;;46.42;18.15;;;;;;;8.40;100.00;100522.44;3157456;28;20136;-73
2023/01/23 02:27:55;;;;;;;55.15;19.27;;;;;;;8.40;100.00;100513.78;3157921;28;20063;-73
2023/01/23 02:29:27;;;;;;;52.35;18.63;;;;;;;8.40;100.00;100522.44;3157632;28;20121;-72
2023/01/23 02:30:58;;;;;;;46.35;19.58;;;;;;;8.41;100.00;100523.28;3157837;28;20136;-71
2023/01/23 02:32:30;;;;;;;44.53;18.85;;;;;;;8.41;100.00;100515.50;3157597;28;20048;-70
2023/01/23 02:34:02;;;;;;;59.05;18.70;;;;;;;8.40;100.00;100509.47;3156303;28;20051;-70
2023/01/23 02:35:35;;;;;;;44.03;18.15;;;;;;;8.40;100.00;100517.25;3157692;28;20075;-72
2023/01/23 02:37:09;;;;;;;45.35;19.02;;;;;;;8.30;100.00;100505.34;3157249;28;20124;-71
2023/01/23 02:38:49;;;;;;;49.60;17.02;;;;;;;8.32;100.00;100511.34;3157164;28;20414;-71
2023/01/23 02:40:30;;;;;;;53.03;18.23;;;;;;;8.36;100.00;100512.97;3157753;28;20051;-71
2023/01/23 02:42:05;;;;;;;44.08;17.55;;;;;;;8.36;100.00;100510.38;3157715;28;20048;-72
2023/01/23 02:43:38;;;;;;;48.05;17.67;;;;;;;8.39;100.00;100518.13;3152790;28;20048;-72
2023/01/23 02:45:10;;;;;;;52.13;18.38;;;;;;;8.39;100.00;100517.28;3149771;28;20052;-70
2023/01/23 02:46:42;;;;;;;51.83;17.02;;;;;;;8.41;100.00;100523.28;3157708;28;20052;-71
2023/01/23 02:48:14;;;;;;;37.63;16.23;;;;;;;8.42;100.00;100525.00;3157413;28;20052;-73
2023/01/23 02:49:46;;;;;;;38.42;16.60;;;;;;;8.40;100.00;100525.03;3157341;28;20105;-72
2023/01/23 02:51:17;;;;;;;47.78;16.80;;;;;;;8.40;100.00;100518.97;3151342;28;20106;-73
2023/01/23 02:52:49;;;;;;;41.47;15.80;;;;;;;8.37;100.00;100514.72;3157605;28;20044;-72
2023/01/23 02:54:21;;;;;;;39.05;17.48;;;;;;;8.35;100.00;100520.81;3157279;28;20051;-72
2023/01/23 02:55:53;;;;;;;40.63;16.25;;;;;;;8.32;100.00;100524.34;3157452;28;20051;-72
2023/01/23 02:57:26;;;;;;;46.85;17.92;;;;;;;8.36;100.00;100525.94;3157798;28;20105;-72
2023/01/23 03:00:47;;;;;;;42.13;17.05;;;;;;;8.40;100.00;100535.44;3157369;28;20048;-72
2023/01/23 03:02:18;;;;;;;45.95;17.15;;;;;;;8.41;100.00;100531.06;3157609;28;20121;-71
2023/01/23 03:03:52;;;;;;;51.38;16.77;;;;;;;8.41;100.00;100531.94;3157120;28;20044;-72
2023/01/23 03:05:24;;;;;;;43.45;16.23;;;;;;;8.39;100.00;100519.88;3157684;28;20139;-72
2023/01/23 03:06:54;;;;;;;40.50;16.10;;;;;;;8.40;100.00;100522.44;3157164;28;20052;-71
2023/01/23 03:08:32;;;;;;;35.63;14.93;;;;;;;8.39;100.00;100523.31;3157122;28;20052;-72
2023/01/23 03:10:06;;;;;;;40.58;15.98;;;;;;;8.40;100.00;100526.75;3157400;28;20052;-72
2023/01/23 03:11:40;;;;;;;34.17;14.90;;;;;;;8.41;100.00;100536.28;3157367;28;20105;-72
2023/01/23 03:13:12;;;;;;;36.22;16.00;;;;;;;8.37;100.00;100532.88;3156709;28;20574;-72
2023/01/23 03:14:44;;;;;;;39.53;15.57;;;;;;;8.29;100.00;100518.38;3157360;28;20155;-72
2023/01/23 03:16:15;;;;;;;37.92;16.35;;;;;;;8.37;100.00;100532.00;3157101;28;20125;-72
2023/01/23 03:17:47;;;;;;;38.13;14.50;;;;;;;8.39;100.00;100533.69;3158262;28;20123;-72
2023/01/23 03:19:20;;;;;;;37.15;16.73;;;;;;;8.39;100.00;100538.88;3157168;28;20051;-72
2023/01/23 03:20:52;;;;;;;36.65;16.15;;;;;;;8.40;100.00;100540.63;3156953;28;20043;-72
2023/01/23 03:22:25;;;;;;;41.33;16.02;;;;;;;8.39;100.00;100538.03;3157091;28;20056;-72
2023/01/23 03:23:56;;;;;;;42.40;18.02;;;;;;;8.38;100.00;100539.78;3157283;28;20051;-72
2023/01/23 03:25:28;;;;;;;39.00;17.17;;;;;;;8.39;100.00;100525.91;3156997;28;20047;-72
2023/01/23 03:27:00;;;;;;;40.15;16.45;;;;;;;8.42;100.00;100536.22;3157292;28;20101;-72
2023/01/23 03:30:24;;;;;;;34.47;15.00;;;;;;;8.36;100.00;100531.16;3157303;28;20074;-71
2023/01/23 03:31:56;;;;;;;43.72;16.13;;;;;;;8.38;100.00;100533.72;3157428;28;20524;-72
2023/01/23 03:33:26;;;;;;;37.90;16.10;;;;;;;8.38;100.00;100537.19;3156887;28;20048;-71
2023/01/23 03:34:58;;;;;;;38.95;16.17;;;;;;;8.39;100.00;100540.63;3156877;28;20047;-71
2023/01/23 03:36:29;;;;;;;43.55;16.60;;;;;;;8.38;100.00;100536.31;3157525;28;20059;-71
2023/01/23 03:38:01;;;;;;;50.00;17.20;;;;;;;8.38;100.00;100536.31;3157181;28;20051;-71
2023/01/23 03:41:24;;;;;;;47.10;16.90;;;;;;;8.34;100.00;100534.66;3144901;28;20547;-71
2023/01/23 03:42:56;;;;;;;42.58;18.30;;;;;;;8.35;100.00;100536.38;3156948;28;20165;-71
2023/01/23 03:44:29;;;;;;;46.55;17.85;;;;;;;8.36;100.00;100535.50;3145405;28;20055;-72
2023/01/23 03:46:01;;;;;;;49.88;19.38;;;;;;;8.33;100.00;100533.81;3158206;28;20524;-70
2023/01/23 03:47:33;;;;;;;44.67;17.90;;;;;;;8.35;100.00;100541.59;3159276;28;20467;-70
2023/01/23 03:49:05;;;;;;;49.45;18.60;;;;;;;8.34;100.00;100540.72;3159457;28;20436;-71
2023/01/23 03:50:37;;;;;;;44.97;17.52;;;;;;;8.30;100.00;100533.03;3149955;28;20110;-71
2023/01/23 03:52:09;;;;;;;53.40;18.60;;;;;;;8.30;100.00;100543.41;3159360;28;20052;-71
2023/01/23 03:53:39;;;;;;;44.70;18.42;;;;;;;8.29;100.00;100544.31;3159716;28;20040;-71
2023/01/23 03:55:11;;;;;;;42.15;18.27;;;;;;;8.31;100.00;100539.94;3159515;28;20132;-71
2023/01/23 03:56:43;;;;;;;50.53;18.67;;;;;;;8.23;100.00;100532.34;3159157;28;20059;-71
2023/01/23 03:58:15;;;;;;;45.90;17.88;;;;;;;8.29;100.00;100542.56;3159500;28;20047;-71
2023/01/23 03:59:49;;;;;;;44.80;17.63;;;;;;;8.25;100.00;100550.47;3159383;28;20040;-71
2023/01/23 04:01:21;;;;;;;52.47;18.58;;;;;;;8.25;100.00;100545.25;3159011;28;20052;-71
2023/01/23 04:02:52;;;;;;;48.45;18.40;;;;;;;8.23;100.00;100544.47;3158868;28;20051;-71
2023/01/23 04:04:24;;;;;;;49.85;18.00;;;;;;;8.21;100.00;100550.53;3159261;28;20048;-72
2023/01/23 04:05:56;;;;;;;45.97;16.83;;;;;;;8.18;100.00;100539.38;3159013;28;20074;-72
2023/01/23 04:07:28;;;;;;;37.05;17.85;;;;;;;8.18;100.00;100545.41;3159045;28;20048;-71
2023/01/23 04:08:58;;;;;;;41.80;16.23;;;;;;;8.16;100.00;100573.16;3159151;28;20052;-71
2023/01/23 04:10:30;;;;;;;44.45;16.90;;;;;;;8.12;100.00;100552.50;3158563;28;20131;-70
2023/01/23 04:12:02;;;;;;;44.13;17.73;;;;;;;8.14;100.00;100553.31;3159391;28;20052;-70
2023/01/23 04:13:34;;;;;;;37.63;14.55;;;;;;;8.12;100.00;100562.88;3146965;28;20053;-72
2023/01/23 04:15:09;;;;;;;44.97;18.38;;;;;;;8.09;100.00;100563.78;3158721;28;20055;-71
2023/01/23 04:16:41;;;;;;;48.30;19.10;;;;;;;8.09;100.00;100565.53;3159323;28;20106;-72
2023/01/23 04:18:13;;;;;;;52.60;18.70;;;;;;;8.08;100.00;100569.88;3155908;28;20044;-72
2023/01/23 04:19:44;;;;;;;53.45;20.27;;;;;;;8.08;100.00;100562.09;3158851;28;20052;-71
2023/01/23 04:21:16;;;;;;;48.05;19.48;;;;;;;8.08;100.00;100574.22;3159380;28;20048;-72
2023/01/23 04:22:47;;;;;;;43.90;19.00;;;;;;;8.06;100.00;100576.84;3159237;28;20044;-72
2023/01/23 04:24:19;;;;;;;48.10;22.13;;;;;;;8.04;100.00;100577.75;3158947;28;20496;-71
2023/01/23 04:25:50;;;;;;;41.58;19.98;;;;;;;7.97;100.00;100572.69;3159198;28;20453;-71
2023/01/23 04:27:23;;;;;;;47.22;18.45;;;;;;;7.98;100.00;100571.81;3159241;28;20547;-71
2023/01/23 04:28:54;;;;;;;47.45;18.52;;;;;;;7.99;100.00;100575.28;3158964;28;20047;-71
2023/01/23 04:30:28;;;;;;;53.45;19.40;;;;;;;7.95;100.00;100574.47;3159548;28;20109;-71
2023/01/23 04:32:00;;;;;;;52.05;18.23;;;;;;;7.91;100.00;100578.03;3159118;28;20048;-71
2023/01/23 04:33:31;;;;;;;48.85;20.45;;;;;;;7.91;100.00;100572.00;3158503;28;20072;-71
2023/01/23 04:35:03;;;;;;;53.45;20.25;;;;;;;7.91;100.00;100582.34;3158851;28;20044;-71
2023/01/23 04:36:35;;;;;;;49.03;20.20;;;;;;;7.91;100.00;100587.53;3159042;28;20051;-71
2023/01/23 04:38:06;;;;;;;54.55;19.63;;;;;;;7.90;100.00;100585.84;3158301;28;20520;-71
2023/01/23 04:39:38;;;;;;;46.92;19.33;;;;;;;7.90;100.00;100594.47;3146938;28;20112;-71
2023/01/23 04:41:14;;;;;;;55.05;19.77;;;;;;;7.91;100.00;100585.81;3158275;28;20048;-70
2023/01/23 04:42:45;;;;;;;55.53;20.35;;;;;;;7.88;100.00;100583.28;3158846;28;20154;-71
2023/01/23 04:44:19;;;;;;;50.95;19.00;;;;;;;7.91;100.00;100582.34;3148168;28;20044;-70
2023/01/23 04:45:53;;;;;;;50.17;17.40;;;;;;;7.89;100.00;100584.97;3156766;28;20504;-72
2023/01/23 04:47:25;;;;;;;47.90;17.65;;;;;;;7.84;100.00;100585.94;3158689;28;20040;-71
2023/01/23 04:48:57;;;;;;;49.13;16.98;;;;;;;7.79;100.00;100599.03;3158511;28;20109;-73
2023/01/23 04:50:29;;;;;;;39.28;18.40;;;;;;;7.77;100.00;100598.19;3153410;28;20192;-72
2023/01/23 04:52:01;;;;;;;43.40;16.85;;;;;;;7.79;100.00;100590.41;3154051;28;20051;-71
2023/01/23 04:53:32;;;;;;;43.13;16.75;;;;;;;7.78;100.00;100591.28;3158678;28;20067;-71
2023/01/23 04:55:05;;;;;;;42.47;17.67;;;;;;;7.77;100.00;100595.59;3158843;28;20052;-72
2023/01/23 04:56:37;;;;;;;47.88;18.95;;;;;;;7.77;100.00;100605.13;3158343;28;20072;-71
2023/01/23 04:58:11;;;;;;;40.03;16.95;;;;;;;7.76;100.00;100591.31;3158435;28;20059;-71
2023/01/23 04:59:43;;;;;;;50.10;17.88;;;;;;;7.77;100.00;100610.31;3159070;28;20164;-71
2023/01/23 05:01:21;;;;;;;38.00;16.75;;;;;;;7.77;100.00;100605.13;3155473;28;20071;-71
2023/01/23 05:02:53;;;;;;;42.17;17.63;;;;;;;7.73;100.00;100606.94;3158569;28;20052;-70
2023/01/23 05:04:25;;;;;;;43.50;16.88;;;;;;;7.71;100.00;100611.28;3158800;28;20055;-71
2023/01/23 05:05:57;;;;;;;35.00;15.88;;;;;;;7.72;100.00;100619.06;3158410;28;20105;-70
2023/01/23 05:07:29;;;;;;;54.78;18.10;;;;;;;7.73;100.00;100622.50;3157357;28;20052;-70
2023/01/23 05:09:00;;;;;;;36.85;16.60;;;;;;;7.72;100.00;100626.84;3158795;28;20060;-70
2023/01/23 05:10:32;;;;;;;47.90;17.42;;;;;;;7.61;100.00;100608.03;3158437;28;20051;-71
2023/01/23 05:12:04;;;;;;;49.55;17.92;;;;;;;7.66;100.00;100623.50;3159937;28;20523;-68
2023/01/23 05:13:36;;;;;;;42.00;17.17;;;;;;;7.64;100.00;100625.28;3158794;28;20048;-71
2023/01/23 05:15:08;;;;;;;43.17;17.17;;;;;;;7.65;100.00;100621.78;3158335;28;20146;-73
2023/01/23 05:16:41;;;;;;;38.08;16.15;;;;;;;7.63;100.00;100624.44;3158871;28;20135;-73
2023/01/23 05:18:13;;;;;;;43.28;16.67;;;;;;;7.63;100.00;100634.81;3161730;28;20195;-73
2023/01/23 05:19:47;;;;;;;37.60;14.90;;;;;;;7.63;100.00;100634.81;3151927;28;20106;-71
2023/01/23 05:21:19;;;;;;;37.67;15.45;;;;;;;7.60;100.00;100641.75;3145673;28;20053;-71
2023/01/23 05:22:54;;;;;;;43.25;18.65;;;;;;;7.57;100.00;100640.06;3145760;28;20529;-73
2023/01/23 05:24:26;;;;;;;43.40;18.85;;;;;;;7.58;100.00;100646.13;3147714;28;20540;-73
2023/01/23 05:25:58;;;;;;;43.95;16.40;;;;;;;7.59;100.00;100647.84;3158630;28;20055;-76
2023/01/23 05:27:30;;;;;;;37.70;16.25;;;;;;;7.60;100.00;100642.63;3158256;28;20482;-73
2023/01/23 05:29:00;;;;;;;43.25;16.10;;;;;;;7.59;100.00;100647.84;3158289;28;20074;-74
2023/01/23 05:30:32;;;;;;;44.70;17.20;;;;;;;7.59;100.00;100647.84;3158288;28;20180;-73
2023/01/23 05:32:06;;;;;;;39.55;16.85;;;;;;;7.57;100.00;100644.41;3158352;28;20476;-72
2023/01/23 05:33:39;;;;;;;44.85;17.05;;;;;;;7.52;100.00;100642.78;3157969;28;20127;-71
2023/01/23 05:35:11;;;;;;;40.10;16.73;;;;;;;7.53;100.00;100643.63;3158251;28;20667;-71
2023/01/23 05:36:43;;;;;;;47.17;17.23;;;;;;;7.50;100.00;100647.13;3157822;28;20101;-71
2023/01/23 05:38:15;;;;;;;44.13;17.33;;;;;;;7.52;100.00;100650.56;3157837;28;20052;-74
2023/01/23 05:39:47;;;;;;;37.17;16.00;;;;;;;7.50;100.00;100649.72;3158133;28;20527;-71
2023/01/23 05:41:18;;;;;;;39.03;16.67;;;;;;;7.50;100.00;100651.47;3157822;28;20055;-74
2023/01/23 05:42:51;;;;;;;38.83;15.45;;;;;;;7.43;100.00;100644.69;3158000;28;20063;-72
2023/01/23 05:44:22;;;;;;;37.92;17.65;;;;;;;7.52;100.00;100658.31;3157332;28;20493;-71
2023/01/23 05:45:54;;;;;;;45.95;17.38;;;;;;;7.56;100.00;100658.25;3157664;28;20064;-74
2023/01/23 05:47:27;;;;;;;44.00;16.48;;;;;;;7.59;100.00;100655.63;3147253;28;20068;-74
2023/01/23 05:48:58;;;;;;;38.25;18.10;;;;;;;7.58;100.00;100657.34;3157802;28;20097;-74
2023/01/23 05:50:30;;;;;;;40.90;16.52;;;;;;;7.59;100.00;100653.03;3156416;28;20044;-68
2023/01/23 05:52:02;;;;;;;43.22;17.10;;;;;;;7.56;100.00;100658.25;3149628;28;20048;-71
2023/01/23 05:53:34;;;;;;;44.45;17.35;;;;;;;7.55;100.00;100652.22;3157831;28;20044;-69
2023/01/23 05:55:07;;;;;;;40.58;17.65;;;;;;;7.54;100.00;100655.69;3157884;28;20059;-71
2023/01/23 05:56:38;;;;;;;38.60;16.75;;;;;;;7.52;100.00;100666.09;3157829;28;20073;-72
2023/01/23 05:58:11;;;;;;;50.75;17.67;;;;;;;7.53;100.00;100662.63;3147660;28;20048;-71
2023/01/23 05:59:43;;;;;;;37.55;16.45;;;;;;;7.53;100.00;100665.19;3156789;28;20079;-72
2023/01/23 06:01:15;;;;;;;47.72;17.40;;;;;;;7.55;100.00;100666.94;3156536;28;20104;-71
2023/01/23 06:02:48;;;;;;;50.30;18.65;;;;;;;7.56;100.00;100663.44;3156612;28;20051;-71
2023/01/23 06:04:20;;;;;;;36.95;14.35;;;;;;;7.52;100.00;100667.84;3156316;28;20598;-71
2023/01/23 06:05:51;;;;;;;39.05;17.83;;;;;;;7.50;100.00;100680.81;3156388;28;20043;-72
2023/01/23 06:07:23;;;;;;;42.00;16.08;;;;;;;7.49;100.00;100679.13;3157304;28;20462;-72
2023/01/23 06:08:55;;;;;;;39.75;16.58;;;;;;;7.50;100.00;100685.16;3157147;28;20070;-71
2023/01/23 06:10:27;;;;;;;39.92;17.08;;;;;;;7.51;100.00;100686.84;3154614;28;20109;-71
2023/01/23 06:11:59;;;;;;;43.05;15.65;;;;;;;7.49;100.00;100688.63;3157465;28;20051;-71
2023/01/23 06:13:31;;;;;;;41.28;17.65;;;;;;;7.49;100.00;100693.81;3157270;28;20043;-71
2023/01/23 06:15:03;;;;;;;37.97;16.65;;;;;;;7.50;100.00;100691.19;3157252;28;20048;-71
2023/01/23 06:16:35;;;;;;;38.78;15.38;;;;;;;7.50;99.71;100695.50;3157623;28;20055;-72
2023/01/23 06:18:08;;;;;;;36.03;13.43;;;;;;;7.47;99.53;100700.75;3166746;28;20043;-72
2023/01/23 06:19:40;;;;;;;40.88;16.42;;;;;;;7.46;99.80;100705.09;3157405;28;20052;-72
2023/01/23 06:21:12;;;;;;;41.00;15.55;;;;;;;7.51;99.40;100705.00;3157752;28;20432;-72
2023/01/23 06:22:44;;;;;;;41.28;15.80;;;;;;;7.50;99.53;100706.72;3157712;28;20052;-71
2023/01/23 06:24:15;;;;;;;51.90;15.38;;;;;;;7.52;99.28;100710.16;3156759;28;20040;-72
2023/01/23 06:25:46;;;;;;;43.38;15.73;;;;;;;7.50;99.25;100711.91;3157638;28;20070;-74
2023/01/23 06:27:18;;;;;;;35.70;15.13;;;;;;;7.47;99.12;100714.56;3157068;28;20389;-75
2023/01/23 06:28:50;;;;;;;49.17;20.10;;;;;;;7.51;99.37;100713.66;3149254;28;20044;-73
2023/01/23 06:30:22;;;;;;;42.63;18.83;;;;;;;7.56;99.40;100720.47;3157389;28;20692;-74
2023/01/23 06:31:54;;;;;;;38.83;17.80;;;;;;;7.59;99.27;100717.81;3157166;28;20130;-71
2023/01/23 06:33:27;;;;;;;39.22;14.68;;;;;;;7.55;98.97;100714.44;3157355;28;20040;-71
2023/01/23 06:34:59;;;;;;;52.78;20.60;;;;;;;7.58;98.76;100721.31;3148409;28;20044;-72
2023/01/23 06:36:31;;;;;;;46.40;18.95;;;;;;;7.64;98.71;100726.38;3152746;28;20104;-72
2023/01/23 06:38:03;;;;;;;39.40;14.82;;;;;;;7.68;98.47;100728.03;3156630;28;20413;-73
2023/01/23 06:39:35;;;;;;;47.40;15.77;;;;;;;7.65;98.16;100725.50;3156765;28;20044;-73
2023/01/23 06:41:08;;;;;;;48.63;16.40;;;;;;;7.63;98.04;100735.03;3151838;28;20135;-74
2023/01/23 06:42:40;;;;;;;38.80;14.85;;;;;;;7.63;98.11;100735.03;3151490;28;20048;-75
2023/01/23 06:44:11;;;;;;;40.58;15.35;;;;;;;7.56;98.01;100721.31;3152006;28;20117;-73
2023/01/23 06:45:45;;;;;;;40.70;15.13;;;;;;;7.62;97.59;100741.09;3152176;28;20108;-72
2023/01/23 06:47:18;;;;;;;49.92;16.23;;;;;;;7.58;97.58;100739.47;3151864;28;20505;-73
2023/01/23 06:48:52;;;;;;;35.88;14.88;;;;;;;7.58;97.29;100745.50;3152160;28;20052;-73
2023/01/23 06:50:24;;;;;;;36.83;15.40;;;;;;;7.56;97.33;100748.97;3139744;28;20052;-70
2023/01/23 06:51:56;;;;;;;36.67;15.25;;;;;;;7.57;96.94;100748.94;3143870;28;20048;-70
2023/01/23 06:53:29;;;;;;;35.22;14.63;;;;;;;7.56;96.93;100746.41;3139414;28;20102;-73
2023/01/23 06:55:01;;;;;;;32.53;15.13;;;;;;;7.52;96.88;100746.44;3140287;28;20048;-71
2023/01/23 06:56:33;;;;;;;40.13;14.68;;;;;;;7.53;96.93;100750.75;3152539;28;20093;-71
2023/01/23 06:58:04;;;;;;;32.88;14.15;;;;;;;7.52;96.88;100755.97;3139582;28;20106;-72
2023/01/23 06:59:36;;;;;;;40.60;16.67;;;;;;;7.52;96.87;100756.81;3150950;28;20138;-74
2023/01/23 07:01:09;;;;;;;37.07;16.10;;;;;;;7.52;96.36;100756.81;3151522;28;20051;-72
2023/01/23 07:02:41;;;;;;;34.88;14.13;;;;;;;7.50;96.69;100750.78;3152146;28;20336;-76
2023/01/23 07:04:14;;;;;;;39.40;15.27;;;;;;;7.49;96.51;100751.69;3151575;28;20101;-74
2023/01/23 07:05:46;;;;;;;40.85;15.30;;;;;;;7.49;96.27;100751.69;3151409;28;20044;-75
2023/01/23 07:07:19;;;;;;;45.92;15.25;;;;;;;7.49;96.28;100756.88;3147219;28;20056;-76